sensor_id;sensor_type;location;lat;lon;timestamp;P1;durP1;ratioP1;P2;durP2;ratioP2
19183;SDS011;9724;51.194;6.856;2023-04-03T00:00:52;7.80;;;4.10;;
19183;SDS011;9724;51.194;6.856;2023-04-03T00:03:19;5.43;;;4.27;;
19183;SDS011;9724;51.194;6.856;2023-04-03T00:05:46;8.63;;;4.17;;
19183;SDS011;9724;51.194;6.856;2023-04-03T00:08:12;6.07;;;4.20;;
19183;SDS011;9724;51.194;6.856;2023-04-03T00:10:38;5.47;;;4.20;;
19183;SDS011;9724;51.194;6.856;2023-04-03T00:13:06;5.33;;;4.13;;
19183;SDS011;9724;51.194;6.856;2023-04-03T00:15:33;5.13;;;3.70;;
19183;SDS011;9724;51.194;6.856;2023-04-03T00:18:00;6.77;;;4.00;;
19183;SDS011;9724;51.194;6.856;2023-04-03T00:20:27;5.00;;;3.60;;
19183;SDS011;9724;51.194;6.856;2023-04-03T00:22:54;5.27;;;3.70;;
19183;SDS011;9724;51.194;6.856;2023-04-03T00:25:20;11.70;;;4.40;;
19183;SDS011;9724;51.194;6.856;2023-04-03T00:27:47;5.47;;;4.00;;
19183;SDS011;9724;51.194;6.856;2023-04-03T00:30:14;7.00;;;4.17;;
19183;SDS011;9724;51.194;6.856;2023-04-03T00:32:42;8.90;;;4.00;;
19183;SDS011;9724;51.194;6.856;2023-04-03T00:35:09;8.50;;;4.10;;
19183;SDS011;9724;51.194;6.856;2023-04-03T00:37:36;7.23;;;4.60;;
19183;SDS011;9724;51.194;6.856;2023-04-03T00:40:02;7.37;;;4.33;;
19183;SDS011;9724;51.194;6.856;2023-04-03T00:42:30;6.63;;;4.10;;
19183;SDS011;9724;51.194;6.856;2023-04-03T00:45:22;9.37;;;4.70;;
19183;SDS011;9724;51.194;6.856;2023-04-03T00:47:51;5.50;;;4.20;;
19183;SDS011;9724;51.194;6.856;2023-04-03T00:50:17;6.97;;;4.50;;
19183;SDS011;9724;51.194;6.856;2023-04-03T00:52:44;9.77;;;4.67;;
19183;SDS011;9724;51.194;6.856;2023-04-03T00:55:11;6.63;;;4.70;;
19183;SDS011;9724;51.194;6.856;2023-04-03T00:57:39;10.13;;;5.23;;
19183;SDS011;9724;51.194;6.856;2023-04-03T01:00:07;5.23;;;4.67;;
19183;SDS011;9724;51.194;6.856;2023-04-03T01:02:36;6.30;;;4.50;;
19183;SDS011;9724;51.194;6.856;2023-04-03T01:05:02;5.33;;;4.67;;
19183;SDS011;9724;51.194;6.856;2023-04-03T01:07:30;4.60;;;4.17;;
19183;SDS011;9724;51.194;6.856;2023-04-03T01:10:00;5.17;;;4.30;;
19183;SDS011;9724;51.194;6.856;2023-04-03T01:12:31;5.93;;;4.87;;
19183;SDS011;9724;51.194;6.856;2023-04-03T01:15:00;7.40;;;5.00;;
19183;SDS011;9724;51.194;6.856;2023-04-03T01:17:29;7.10;;;4.87;;
19183;SDS011;9724;51.194;6.856;2023-04-03T01:20:01;8.40;;;4.87;;
19183;SDS011;9724;51.194;6.856;2023-04-03T01:22:45;8.57;;;5.10;;
19183;SDS011;9724;51.194;6.856;2023-04-03T01:25:20;8.03;;;4.70;;
19183;SDS011;9724;51.194;6.856;2023-04-03T01:27:46;6.67;;;4.63;;
19183;SDS011;9724;51.194;6.856;2023-04-03T01:30:13;7.03;;;4.93;;
19183;SDS011;9724;51.194;6.856;2023-04-03T01:32:44;9.43;;;5.07;;
19183;SDS011;9724;51.194;6.856;2023-04-03T01:35:11;8.47;;;4.90;;
19183;SDS011;9724;51.194;6.856;2023-04-03T01:37:37;6.43;;;4.90;;
19183;SDS011;9724;51.194;6.856;2023-04-03T01:40:04;7.63;;;4.90;;
19183;SDS011;9724;51.194;6.856;2023-04-03T01:42:32;11.00;;;4.77;;
19183;SDS011;9724;51.194;6.856;2023-04-03T01:44:58;7.03;;;4.93;;
19183;SDS011;9724;51.194;6.856;2023-04-03T01:47:24;5.60;;;4.80;;
19183;SDS011;9724;51.194;6.856;2023-04-03T01:49:51;10.80;;;6.30;;
19183;SDS011;9724;51.194;6.856;2023-04-03T01:52:18;10.43;;;5.00;;
19183;SDS011;9724;51.194;6.856;2023-04-03T01:54:44;7.80;;;5.20;;
19183;SDS011;9724;51.194;6.856;2023-04-03T01:57:10;10.00;;;5.53;;
19183;SDS011;9724;51.194;6.856;2023-04-03T01:59:37;7.77;;;5.40;;
19183;SDS011;9724;51.194;6.856;2023-04-03T02:02:03;9.07;;;5.70;;
19183;SDS011;9724;51.194;6.856;2023-04-03T02:04:29;7.03;;;5.40;;
19183;SDS011;9724;51.194;6.856;2023-04-03T02:06:56;8.47;;;5.60;;
19183;SDS011;9724;51.194;6.856;2023-04-03T02:09:22;8.97;;;5.17;;
19183;SDS011;9724;51.194;6.856;2023-04-03T02:11:49;8.50;;;5.10;;
19183;SDS011;9724;51.194;6.856;2023-04-03T02:14:15;8.70;;;5.20;;
19183;SDS011;9724;51.194;6.856;2023-04-03T02:16:41;11.93;;;5.53;;
19183;SDS011;9724;51.194;6.856;2023-04-03T02:19:08;6.67;;;4.60;;
19183;SDS011;9724;51.194;6.856;2023-04-03T02:21:34;7.73;;;4.40;;
19183;SDS011;9724;51.194;6.856;2023-04-03T02:24:01;12.43;;;4.83;;
19183;SDS011;9724;51.194;6.856;2023-04-03T02:26:27;5.50;;;3.97;;
19183;SDS011;9724;51.194;6.856;2023-04-03T02:28:53;6.97;;;4.07;;
19183;SDS011;9724;51.194;6.856;2023-04-03T02:31:20;8.10;;;4.30;;
19183;SDS011;9724;51.194;6.856;2023-04-03T02:33:46;6.60;;;3.97;;
19183;SDS011;9724;51.194;6.856;2023-04-03T02:36:12;10.77;;;4.00;;
19183;SDS011;9724;51.194;6.856;2023-04-03T02:38:38;8.27;;;4.17;;
19183;SDS011;9724;51.194;6.856;2023-04-03T02:41:06;6.37;;;4.03;;
19183;SDS011;9724;51.194;6.856;2023-04-03T02:43:33;7.70;;;4.00;;
19183;SDS011;9724;51.194;6.856;2023-04-03T02:45:59;5.63;;;3.83;;
19183;SDS011;9724;51.194;6.856;2023-04-03T02:48:26;8.17;;;3.87;;
19183;SDS011;9724;51.194;6.856;2023-04-03T02:50:53;6.73;;;3.73;;
19183;SDS011;9724;51.194;6.856;2023-04-03T02:53:20;6.93;;;3.70;;
19183;SDS011;9724;51.194;6.856;2023-04-03T02:55:47;3.60;;;3.30;;
19183;SDS011;9724;51.194;6.856;2023-04-03T02:58:14;7.80;;;4.23;;
19183;SDS011;9724;51.194;6.856;2023-04-03T03:00:40;5.93;;;4.07;;
19183;SDS011;9724;51.194;6.856;2023-04-03T03:03:07;7.03;;;3.77;;
19183;SDS011;9724;51.194;6.856;2023-04-03T03:05:33;6.47;;;3.70;;
19183;SDS011;9724;51.194;6.856;2023-04-03T03:07:59;7.37;;;4.10;;
19183;SDS011;9724;51.194;6.856;2023-04-03T03:10:26;10.67;;;4.17;;
19183;SDS011;9724;51.194;6.856;2023-04-03T03:12:52;5.13;;;3.97;;
19183;SDS011;9724;51.194;6.856;2023-04-03T03:15:19;6.40;;;3.93;;
19183;SDS011;9724;51.194;6.856;2023-04-03T03:17:45;8.27;;;4.27;;
19183;SDS011;9724;51.194;6.856;2023-04-03T03:20:12;6.70;;;4.10;;
19183;SDS011;9724;51.194;6.856;2023-04-03T03:22:39;5.73;;;4.20;;
19183;SDS011;9724;51.194;6.856;2023-04-03T03:25:05;11.23;;;4.47;;
19183;SDS011;9724;51.194;6.856;2023-04-03T03:27:32;7.67;;;4.33;;
19183;SDS011;9724;51.194;6.856;2023-04-03T03:29:59;7.17;;;4.00;;
19183;SDS011;9724;51.194;6.856;2023-04-03T03:32:26;6.07;;;4.10;;
19183;SDS011;9724;51.194;6.856;2023-04-03T03:34:52;11.37;;;3.70;;
19183;SDS011;9724;51.194;6.856;2023-04-03T03:37:18;8.40;;;3.90;;
19183;SDS011;9724;51.194;6.856;2023-04-03T03:39:44;7.90;;;4.43;;
19183;SDS011;9724;51.194;6.856;2023-04-03T03:42:11;6.97;;;4.10;;
19183;SDS011;9724;51.194;6.856;2023-04-03T03:44:37;5.47;;;3.90;;
19183;SDS011;9724;51.194;6.856;2023-04-03T03:47:04;10.70;;;4.40;;
19183;SDS011;9724;51.194;6.856;2023-04-03T03:49:32;9.60;;;4.73;;
19183;SDS011;9724;51.194;6.856;2023-04-03T03:51:58;10.70;;;3.93;;
19183;SDS011;9724;51.194;6.856;2023-04-03T03:54:24;8.17;;;3.50;;
19183;SDS011;9724;51.194;6.856;2023-04-03T03:56:50;6.73;;;3.90;;
19183;SDS011;9724;51.194;6.856;2023-04-03T03:59:17;5.30;;;3.70;;
19183;SDS011;9724;51.194;6.856;2023-04-03T04:01:43;6.63;;;3.80;;
19183;SDS011;9724;51.194;6.856;2023-04-03T04:04:09;5.33;;;3.80;;
19183;SDS011;9724;51.194;6.856;2023-04-03T04:06:36;4.63;;;3.50;;
19183;SDS011;9724;51.194;6.856;2023-04-03T04:09:03;6.03;;;3.53;;
19183;SDS011;9724;51.194;6.856;2023-04-03T04:11:29;9.60;;;3.47;;
19183;SDS011;9724;51.194;6.856;2023-04-03T04:13:56;9.63;;;3.90;;
19183;SDS011;9724;51.194;6.856;2023-04-03T04:16:22;6.07;;;3.20;;
19183;SDS011;9724;51.194;6.856;2023-04-03T04:18:48;4.00;;;3.17;;
19183;SDS011;9724;51.194;6.856;2023-04-03T04:21:14;5.73;;;2.97;;
19183;SDS011;9724;51.194;6.856;2023-04-03T04:23:41;6.00;;;3.70;;
19183;SDS011;9724;51.194;6.856;2023-04-03T04:26:07;5.67;;;3.47;;
19183;SDS011;9724;51.194;6.856;2023-04-03T04:28:34;8.97;;;3.53;;
19183;SDS011;9724;51.194;6.856;2023-04-03T04:31:00;4.20;;;3.10;;
19183;SDS011;9724;51.194;6.856;2023-04-03T04:33:26;7.50;;;3.23;;
19183;SDS011;9724;51.194;6.856;2023-04-03T04:35:52;7.07;;;3.10;;
19183;SDS011;9724;51.194;6.856;2023-04-03T04:38:19;7.50;;;3.47;;
19183;SDS011;9724;51.194;6.856;2023-04-03T04:40:46;10.30;;;3.07;;
19183;SDS011;9724;51.194;6.856;2023-04-03T04:43:12;4.60;;;3.00;;
19183;SDS011;9724;51.194;6.856;2023-04-03T04:45:40;5.33;;;3.00;;
19183;SDS011;9724;51.194;6.856;2023-04-03T04:48:06;7.67;;;3.23;;
19183;SDS011;9724;51.194;6.856;2023-04-03T04:50:33;7.10;;;3.23;;
19183;SDS011;9724;51.194;6.856;2023-04-03T04:52:59;8.80;;;3.57;;
19183;SDS011;9724;51.194;6.856;2023-04-03T04:55:25;9.97;;;3.33;;
19183;SDS011;9724;51.194;6.856;2023-04-03T04:57:52;12.47;;;4.80;;
19183;SDS011;9724;51.194;6.856;2023-04-03T05:00:19;7.03;;;3.50;;
19183;SDS011;9724;51.194;6.856;2023-04-03T05:02:46;6.37;;;4.07;;
19183;SDS011;9724;51.194;6.856;2023-04-03T05:05:12;11.27;;;5.90;;
19183;SDS011;9724;51.194;6.856;2023-04-03T05:07:38;7.10;;;4.27;;
19183;SDS011;9724;51.194;6.856;2023-04-03T05:10:06;13.57;;;5.77;;
19183;SDS011;9724;51.194;6.856;2023-04-03T05:12:33;19.27;;;8.03;;
19183;SDS011;9724;51.194;6.856;2023-04-03T05:15:00;7.50;;;4.00;;
19183;SDS011;9724;51.194;6.856;2023-04-03T05:17:27;3.17;;;2.80;;
19183;SDS011;9724;51.194;6.856;2023-04-03T05:19:53;6.47;;;3.30;;
19183;SDS011;9724;51.194;6.856;2023-04-03T05:22:19;6.40;;;4.17;;
19183;SDS011;9724;51.194;6.856;2023-04-03T05:24:45;4.00;;;2.93;;
19183;SDS011;9724;51.194;6.856;2023-04-03T05:27:14;3.57;;;3.07;;
19183;SDS011;9724;51.194;6.856;2023-04-03T05:29:40;4.03;;;2.90;;
19183;SDS011;9724;51.194;6.856;2023-04-03T05:32:10;8.10;;;3.00;;
19183;SDS011;9724;51.194;6.856;2023-04-03T05:34:37;4.20;;;2.97;;
19183;SDS011;9724;51.194;6.856;2023-04-03T05:37:04;6.43;;;2.87;;
19183;SDS011;9724;51.194;6.856;2023-04-03T05:39:30;3.20;;;2.57;;
19183;SDS011;9724;51.194;6.856;2023-04-03T05:41:57;3.77;;;2.43;;
19183;SDS011;9724;51.194;6.856;2023-04-03T05:44:23;5.23;;;2.70;;
19183;SDS011;9724;51.194;6.856;2023-04-03T05:46:49;11.40;;;3.50;;
19183;SDS011;9724;51.194;6.856;2023-04-03T05:49:16;5.53;;;2.40;;
19183;SDS011;9724;51.194;6.856;2023-04-03T05:51:43;6.23;;;2.70;;
19183;SDS011;9724;51.194;6.856;2023-04-03T05:54:11;6.90;;;2.23;;
19183;SDS011;9724;51.194;6.856;2023-04-03T05:56:40;5.43;;;2.80;;
19183;SDS011;9724;51.194;6.856;2023-04-03T05:59:06;5.87;;;2.60;;
19183;SDS011;9724;51.194;6.856;2023-04-03T06:01:32;4.50;;;3.03;;
19183;SDS011;9724;51.194;6.856;2023-04-03T06:04:00;8.97;;;2.80;;
19183;SDS011;9724;51.194;6.856;2023-04-03T06:06:27;2.73;;;2.17;;
19183;SDS011;9724;51.194;6.856;2023-04-03T06:09:09;4.03;;;2.50;;
19183;SDS011;9724;51.194;6.856;2023-04-03T06:11:35;5.67;;;2.57;;
19183;SDS011;9724;51.194;6.856;2023-04-03T06:14:01;5.77;;;2.50;;
19183;SDS011;9724;51.194;6.856;2023-04-03T06:16:28;6.67;;;2.77;;
19183;SDS011;9724;51.194;6.856;2023-04-03T06:18:54;3.70;;;2.60;;
19183;SDS011;9724;51.194;6.856;2023-04-03T06:21:21;5.23;;;2.37;;
19183;SDS011;9724;51.194;6.856;2023-04-03T06:23:48;5.83;;;2.50;;
19183;SDS011;9724;51.194;6.856;2023-04-03T06:26:14;5.20;;;2.83;;
19183;SDS011;9724;51.194;6.856;2023-04-03T06:28:41;8.63;;;2.50;;
19183;SDS011;9724;51.194;6.856;2023-04-03T06:31:07;6.03;;;2.10;;
19183;SDS011;9724;51.194;6.856;2023-04-03T06:33:34;5.47;;;2.67;;
19183;SDS011;9724;51.194;6.856;2023-04-03T06:36:03;12.13;;;2.63;;
19183;SDS011;9724;51.194;6.856;2023-04-03T06:38:30;7.13;;;2.70;;
19183;SDS011;9724;51.194;6.856;2023-04-03T06:40:57;6.80;;;2.63;;
19183;SDS011;9724;51.194;6.856;2023-04-03T06:43:24;5.87;;;2.90;;
19183;SDS011;9724;51.194;6.856;2023-04-03T06:45:50;8.63;;;3.13;;
19183;SDS011;9724;51.194;6.856;2023-04-03T06:48:16;5.17;;;2.10;;
19183;SDS011;9724;51.194;6.856;2023-04-03T06:50:43;5.47;;;2.50;;
19183;SDS011;9724;51.194;6.856;2023-04-03T06:53:11;6.10;;;2.43;;
19183;SDS011;9724;51.194;6.856;2023-04-03T06:55:37;4.83;;;2.80;;
19183;SDS011;9724;51.194;6.856;2023-04-03T06:58:05;4.13;;;2.20;;
19183;SDS011;9724;51.194;6.856;2023-04-03T07:00:32;8.83;;;3.20;;
19183;SDS011;9724;51.194;6.856;2023-04-03T07:02:58;4.87;;;2.37;;
19183;SDS011;9724;51.194;6.856;2023-04-03T07:05:24;5.87;;;2.57;;
19183;SDS011;9724;51.194;6.856;2023-04-03T07:07:51;7.90;;;2.17;;
19183;SDS011;9724;51.194;6.856;2023-04-03T07:10:17;4.23;;;2.27;;
19183;SDS011;9724;51.194;6.856;2023-04-03T07:12:44;5.77;;;1.97;;
19183;SDS011;9724;51.194;6.856;2023-04-03T07:15:11;5.07;;;2.30;;
19183;SDS011;9724;51.194;6.856;2023-04-03T07:17:38;8.97;;;2.73;;
19183;SDS011;9724;51.194;6.856;2023-04-03T07:20:05;5.10;;;2.30;;
19183;SDS011;9724;51.194;6.856;2023-04-03T07:22:32;3.70;;;1.97;;
19183;SDS011;9724;51.194;6.856;2023-04-03T07:24:58;6.60;;;2.00;;
19183;SDS011;9724;51.194;6.856;2023-04-03T07:27:25;9.93;;;2.07;;
19183;SDS011;9724;51.194;6.856;2023-04-03T07:29:51;2.90;;;1.90;;
19183;SDS011;9724;51.194;6.856;2023-04-03T07:32:20;5.60;;;2.30;;
19183;SDS011;9724;51.194;6.856;2023-04-03T07:34:46;4.17;;;1.77;;
19183;SDS011;9724;51.194;6.856;2023-04-03T07:37:12;2.63;;;1.70;;
19183;SDS011;9724;51.194;6.856;2023-04-03T07:39:42;6.97;;;2.00;;
19183;SDS011;9724;51.194;6.856;2023-04-03T07:42:10;5.23;;;1.97;;
19183;SDS011;9724;51.194;6.856;2023-04-03T07:44:37;5.87;;;1.90;;
19183;SDS011;9724;51.194;6.856;2023-04-03T07:47:04;4.83;;;2.10;;
19183;SDS011;9724;51.194;6.856;2023-04-03T07:49:30;5.37;;;1.90;;
19183;SDS011;9724;51.194;6.856;2023-04-03T07:51:58;6.10;;;1.70;;
19183;SDS011;9724;51.194;6.856;2023-04-03T07:54:24;4.73;;;1.90;;
19183;SDS011;9724;51.194;6.856;2023-04-03T07:56:51;2.93;;;1.70;;
19183;SDS011;9724;51.194;6.856;2023-04-03T07:59:17;4.20;;;1.70;;
19183;SDS011;9724;51.194;6.856;2023-04-03T08:01:43;5.80;;;1.90;;
19183;SDS011;9724;51.194;6.856;2023-04-03T08:04:09;4.87;;;1.80;;
19183;SDS011;9724;51.194;6.856;2023-04-03T08:06:37;7.50;;;2.00;;
19183;SDS011;9724;51.194;6.856;2023-04-03T08:09:12;4.13;;;1.93;;
19183;SDS011;9724;51.194;6.856;2023-04-03T08:11:39;5.47;;;2.00;;
19183;SDS011;9724;51.194;6.856;2023-04-03T08:14:05;4.40;;;1.63;;
19183;SDS011;9724;51.194;6.856;2023-04-03T08:16:32;3.13;;;1.70;;
19183;SDS011;9724;51.194;6.856;2023-04-03T08:18:58;2.93;;;1.70;;
19183;SDS011;9724;51.194;6.856;2023-04-03T08:21:25;2.10;;;1.30;;
19183;SDS011;9724;51.194;6.856;2023-04-03T08:23:52;3.30;;;1.53;;
19183;SDS011;9724;51.194;6.856;2023-04-03T08:26:19;2.03;;;1.40;;
19183;SDS011;9724;51.194;6.856;2023-04-03T08:28:46;6.03;;;1.27;;
19183;SDS011;9724;51.194;6.856;2023-04-03T08:31:13;1.87;;;1.37;;
19183;SDS011;9724;51.194;6.856;2023-04-03T08:33:41;2.93;;;1.40;;
19183;SDS011;9724;51.194;6.856;2023-04-03T08:36:14;3.03;;;1.27;;
19183;SDS011;9724;51.194;6.856;2023-04-03T08:38:42;2.83;;;1.53;;
19183;SDS011;9724;51.194;6.856;2023-04-03T08:41:12;6.03;;;1.47;;
19183;SDS011;9724;51.194;6.856;2023-04-03T08:43:43;4.00;;;1.20;;
19183;SDS011;9724;51.194;6.856;2023-04-03T08:46:18;4.40;;;1.50;;
19183;SDS011;9724;51.194;6.856;2023-04-03T08:48:45;1.73;;;1.17;;
19183;SDS011;9724;51.194;6.856;2023-04-03T08:51:13;2.60;;;1.10;;
19183;SDS011;9724;51.194;6.856;2023-04-03T08:53:41;2.70;;;1.30;;
19183;SDS011;9724;51.194;6.856;2023-04-03T08:56:12;1.67;;;1.40;;
19183;SDS011;9724;51.194;6.856;2023-04-03T08:58:41;1.83;;;1.50;;
19183;SDS011;9724;51.194;6.856;2023-04-03T09:01:14;3.70;;;1.57;;
19183;SDS011;9724;51.194;6.856;2023-04-03T09:03:43;5.27;;;1.60;;
19183;SDS011;9724;51.194;6.856;2023-04-03T09:06:11;4.27;;;1.60;;
19183;SDS011;9724;51.194;6.856;2023-04-03T09:08:40;3.40;;;1.80;;
19183;SDS011;9724;51.194;6.856;2023-04-03T09:11:12;3.07;;;1.23;;
19183;SDS011;9724;51.194;6.856;2023-04-03T09:13:44;1.93;;;1.23;;
19183;SDS011;9724;51.194;6.856;2023-04-03T09:16:19;2.60;;;1.20;;
19183;SDS011;9724;51.194;6.856;2023-04-03T09:18:48;3.30;;;1.60;;
19183;SDS011;9724;51.194;6.856;2023-04-03T09:21:19;1.80;;;1.20;;
19183;SDS011;9724;51.194;6.856;2023-04-03T09:23:47;4.90;;;1.53;;
19183;SDS011;9724;51.194;6.856;2023-04-03T09:26:17;4.77;;;1.30;;
19183;SDS011;9724;51.194;6.856;2023-04-03T09:28:44;4.97;;;1.13;;
19183;SDS011;9724;51.194;6.856;2023-04-03T09:31:20;3.00;;;1.57;;
19183;SDS011;9724;51.194;6.856;2023-04-03T09:33:48;1.60;;;1.47;;
19183;SDS011;9724;51.194;6.856;2023-04-03T09:39:04;2.87;;;1.20;;
19183;SDS011;9724;51.194;6.856;2023-04-03T09:41:32;1.43;;;1.20;;
19183;SDS011;9724;51.194;6.856;2023-04-03T09:43:58;2.00;;;1.37;;
19183;SDS011;9724;51.194;6.856;2023-04-03T09:46:28;3.90;;;1.83;;
19183;SDS011;9724;51.194;6.856;2023-04-03T09:48:57;1.50;;;1.37;;
19183;SDS011;9724;51.194;6.856;2023-04-03T09:51:33;3.17;;;1.40;;
19183;SDS011;9724;51.194;6.856;2023-04-03T09:54:00;6.30;;;1.80;;
19183;SDS011;9724;51.194;6.856;2023-04-03T09:56:27;8.27;;;1.40;;
19183;SDS011;9724;51.194;6.856;2023-04-03T09:59:07;2.83;;;1.50;;
19183;SDS011;9724;51.194;6.856;2023-04-03T10:01:39;5.17;;;1.50;;
19183;SDS011;9724;51.194;6.856;2023-04-03T10:04:07;3.07;;;1.30;;
19183;SDS011;9724;51.194;6.856;2023-04-03T10:06:35;3.33;;;1.20;;
19183;SDS011;9724;51.194;6.856;2023-04-03T10:09:04;2.80;;;1.20;;
19183;SDS011;9724;51.194;6.856;2023-04-03T10:11:32;8.57;;;1.40;;
19183;SDS011;9724;51.194;6.856;2023-04-03T10:13:59;2.93;;;1.40;;
19183;SDS011;9724;51.194;6.856;2023-04-03T10:16:28;6.73;;;1.27;;
19183;SDS011;9724;51.194;6.856;2023-04-03T10:19:10;3.77;;;1.20;;
19183;SDS011;9724;51.194;6.856;2023-04-03T10:21:57;2.40;;;1.37;;
19183;SDS011;9724;51.194;6.856;2023-04-03T10:24:28;3.27;;;1.10;;
19183;SDS011;9724;51.194;6.856;2023-04-03T10:27:02;0.97;;;0.90;;
19183;SDS011;9724;51.194;6.856;2023-04-03T10:29:36;2.00;;;0.90;;
19183;SDS011;9724;51.194;6.856;2023-04-03T10:32:11;4.10;;;0.93;;
19183;SDS011;9724;51.194;6.856;2023-04-03T10:34:47;5.27;;;1.10;;
19183;SDS011;9724;51.194;6.856;2023-04-03T10:37:30;3.83;;;1.20;;
19183;SDS011;9724;51.194;6.856;2023-04-03T10:40:04;1.37;;;0.90;;
19183;SDS011;9724;51.194;6.856;2023-04-03T10:42:37;1.10;;;1.00;;
19183;SDS011;9724;51.194;6.856;2023-04-03T10:45:08;1.40;;;0.93;;
19183;SDS011;9724;51.194;6.856;2023-04-03T10:47:46;1.10;;;0.90;;
19183;SDS011;9724;51.194;6.856;2023-04-03T10:50:26;2.40;;;1.00;;
19183;SDS011;9724;51.194;6.856;2023-04-03T10:53:00;3.30;;;0.90;;
19183;SDS011;9724;51.194;6.856;2023-04-03T10:55:31;3.40;;;1.07;;
19183;SDS011;9724;51.194;6.856;2023-04-03T10:58:00;2.97;;;1.07;;
19183;SDS011;9724;51.194;6.856;2023-04-03T11:00:31;2.73;;;1.27;;
19183;SDS011;9724;51.194;6.856;2023-04-03T11:03:05;2.40;;;0.90;;
19183;SDS011;9724;51.194;6.856;2023-04-03T11:05:34;3.27;;;1.10;;
19183;SDS011;9724;51.194;6.856;2023-04-03T11:08:04;1.60;;;0.90;;
19183;SDS011;9724;51.194;6.856;2023-04-03T11:10:36;1.87;;;0.83;;
19183;SDS011;9724;51.194;6.856;2023-04-03T11:13:07;1.33;;;1.03;;
19183;SDS011;9724;51.194;6.856;2023-04-03T11:15:38;2.10;;;0.90;;
19183;SDS011;9724;51.194;6.856;2023-04-03T11:18:06;1.93;;;0.90;;
19183;SDS011;9724;51.194;6.856;2023-04-03T11:20:37;1.13;;;1.00;;
19183;SDS011;9724;51.194;6.856;2023-04-03T11:23:05;1.97;;;0.97;;
19183;SDS011;9724;51.194;6.856;2023-04-03T11:25:36;1.30;;;0.87;;
19183;SDS011;9724;51.194;6.856;2023-04-03T11:28:04;4.40;;;1.03;;
19183;SDS011;9724;51.194;6.856;2023-04-03T11:30:32;2.20;;;1.00;;
19183;SDS011;9724;51.194;6.856;2023-04-03T11:33:20;0.90;;;0.90;;
19183;SDS011;9724;51.194;6.856;2023-04-03T11:35:51;1.43;;;0.80;;
19183;SDS011;9724;51.194;6.856;2023-04-03T11:38:21;2.37;;;0.97;;
19183;SDS011;9724;51.194;6.856;2023-04-03T11:40:50;1.10;;;1.00;;
19183;SDS011;9724;51.194;6.856;2023-04-03T11:43:20;1.37;;;0.87;;
19183;SDS011;9724;51.194;6.856;2023-04-03T11:45:55;1.13;;;0.90;;
19183;SDS011;9724;51.194;6.856;2023-04-03T11:57:23;2.23;;;0.80;;
19183;SDS011;9724;51.194;6.856;2023-04-03T12:03:35;1.57;;;1.00;;
19183;SDS011;9724;51.194;6.856;2023-04-03T12:09:32;1.60;;;0.90;;
19183;SDS011;9724;51.194;6.856;2023-04-03T12:12:01;2.53;;;0.80;;
19183;SDS011;9724;51.194;6.856;2023-04-03T12:14:51;1.07;;;0.80;;
19183;SDS011;9724;51.194;6.856;2023-04-03T12:17:20;1.30;;;1.00;;
19183;SDS011;9724;51.194;6.856;2023-04-03T12:19:50;1.37;;;0.90;;
19183;SDS011;9724;51.194;6.856;2023-04-03T12:22:17;1.40;;;0.70;;
19183;SDS011;9724;51.194;6.856;2023-04-03T12:24:46;2.00;;;0.80;;
19183;SDS011;9724;51.194;6.856;2023-04-03T12:27:20;2.70;;;0.70;;
19183;SDS011;9724;51.194;6.856;2023-04-03T12:29:51;0.60;;;0.60;;
19183;SDS011;9724;51.194;6.856;2023-04-03T12:32:34;1.03;;;1.00;;
19183;SDS011;9724;51.194;6.856;2023-04-03T12:35:15;2.43;;;1.50;;
19183;SDS011;9724;51.194;6.856;2023-04-03T12:37:52;2.53;;;0.90;;
19183;SDS011;9724;51.194;6.856;2023-04-03T12:40:29;2.43;;;0.90;;
19183;SDS011;9724;51.194;6.856;2023-04-03T12:43:01;1.17;;;1.07;;
19183;SDS011;9724;51.194;6.856;2023-04-03T12:45:38;4.73;;;1.10;;
19183;SDS011;9724;51.194;6.856;2023-04-03T12:48:12;1.33;;;1.00;;
19183;SDS011;9724;51.194;6.856;2023-04-03T12:50:40;2.63;;;0.90;;
19183;SDS011;9724;51.194;6.856;2023-04-03T12:53:11;2.43;;;1.20;;
19183;SDS011;9724;51.194;6.856;2023-04-03T12:55:38;3.43;;;0.90;;
19183;SDS011;9724;51.194;6.856;2023-04-03T12:58:15;2.10;;;1.07;;
19183;SDS011;9724;51.194;6.856;2023-04-03T13:00:43;1.77;;;1.00;;
19183;SDS011;9724;51.194;6.856;2023-04-03T13:03:19;1.10;;;1.00;;
19183;SDS011;9724;51.194;6.856;2023-04-03T13:05:49;1.73;;;0.93;;
19183;SDS011;9724;51.194;6.856;2023-04-03T13:08:15;1.20;;;0.90;;
19183;SDS011;9724;51.194;6.856;2023-04-03T13:10:43;2.17;;;1.00;;
19183;SDS011;9724;51.194;6.856;2023-04-03T13:13:15;2.10;;;1.50;;
19183;SDS011;9724;51.194;6.856;2023-04-03T13:15:43;2.67;;;0.90;;
19183;SDS011;9724;51.194;6.856;2023-04-03T13:18:21;1.10;;;1.00;;
19183;SDS011;9724;51.194;6.856;2023-04-03T13:20:52;1.40;;;0.93;;
19183;SDS011;9724;51.194;6.856;2023-04-03T13:23:20;2.53;;;1.40;;
19183;SDS011;9724;51.194;6.856;2023-04-03T13:25:48;1.53;;;0.90;;
19183;SDS011;9724;51.194;6.856;2023-04-03T13:28:15;0.90;;;0.83;;
19183;SDS011;9724;51.194;6.856;2023-04-03T13:30:54;4.03;;;1.10;;
19183;SDS011;9724;51.194;6.856;2023-04-03T13:33:27;1.23;;;1.10;;
19183;SDS011;9724;51.194;6.856;2023-04-03T13:35:57;3.03;;;1.10;;
19183;SDS011;9724;51.194;6.856;2023-04-03T13:38:27;2.33;;;1.07;;
19183;SDS011;9724;51.194;6.856;2023-04-03T13:40:57;1.10;;;1.10;;
19183;SDS011;9724;51.194;6.856;2023-04-03T13:43:27;2.67;;;1.27;;
19183;SDS011;9724;51.194;6.856;2023-04-03T13:46:00;1.43;;;1.33;;
19183;SDS011;9724;51.194;6.856;2023-04-03T13:48:34;2.53;;;1.40;;
19183;SDS011;9724;51.194;6.856;2023-04-03T13:51:06;1.57;;;1.20;;
19183;SDS011;9724;51.194;6.856;2023-04-03T13:53:43;6.23;;;1.23;;
19183;SDS011;9724;51.194;6.856;2023-04-03T13:56:16;4.77;;;1.30;;
19183;SDS011;9724;51.194;6.856;2023-04-03T13:58:57;3.93;;;1.20;;
19183;SDS011;9724;51.194;6.856;2023-04-03T14:01:38;2.77;;;1.27;;
19183;SDS011;9724;51.194;6.856;2023-04-03T14:04:12;2.00;;;1.00;;
19183;SDS011;9724;51.194;6.856;2023-04-03T14:06:41;1.90;;;1.30;;
19183;SDS011;9724;51.194;6.856;2023-04-03T14:09:08;2.47;;;1.30;;
19183;SDS011;9724;51.194;6.856;2023-04-03T14:11:34;2.07;;;1.20;;
19183;SDS011;9724;51.194;6.856;2023-04-03T14:14:02;3.07;;;1.40;;
19183;SDS011;9724;51.194;6.856;2023-04-03T14:16:32;2.23;;;1.10;;
19183;SDS011;9724;51.194;6.856;2023-04-03T14:19:03;2.53;;;1.00;;
19183;SDS011;9724;51.194;6.856;2023-04-03T14:21:30;1.43;;;1.13;;
19183;SDS011;9724;51.194;6.856;2023-04-03T14:23:59;2.07;;;1.20;;
19183;SDS011;9724;51.194;6.856;2023-04-03T14:26:25;4.13;;;1.20;;
19183;SDS011;9724;51.194;6.856;2023-04-03T14:28:55;1.00;;;1.00;;
19183;SDS011;9724;51.194;6.856;2023-04-03T14:31:22;2.10;;;1.20;;
19183;SDS011;9724;51.194;6.856;2023-04-03T14:33:48;1.00;;;1.00;;
19183;SDS011;9724;51.194;6.856;2023-04-03T14:36:16;1.27;;;1.17;;
19183;SDS011;9724;51.194;6.856;2023-04-03T14:38:44;2.40;;;1.30;;
19183;SDS011;9724;51.194;6.856;2023-04-03T14:41:12;3.57;;;1.30;;
19183;SDS011;9724;51.194;6.856;2023-04-03T14:43:42;2.87;;;1.03;;
19183;SDS011;9724;51.194;6.856;2023-04-03T14:46:11;4.23;;;1.23;;
19183;SDS011;9724;51.194;6.856;2023-04-03T14:48:38;1.27;;;0.90;;
19183;SDS011;9724;51.194;6.856;2023-04-03T14:51:05;1.50;;;1.03;;
19183;SDS011;9724;51.194;6.856;2023-04-03T14:53:31;2.87;;;1.20;;
19183;SDS011;9724;51.194;6.856;2023-04-03T14:56:05;4.53;;;1.03;;
19183;SDS011;9724;51.194;6.856;2023-04-03T14:58:37;1.40;;;1.20;;
19183;SDS011;9724;51.194;6.856;2023-04-03T15:01:04;2.27;;;1.10;;
19183;SDS011;9724;51.194;6.856;2023-04-03T15:03:30;1.73;;;1.00;;
19183;SDS011;9724;51.194;6.856;2023-04-03T15:05:57;1.90;;;1.30;;
19183;SDS011;9724;51.194;6.856;2023-04-03T15:08:25;1.17;;;1.07;;
19183;SDS011;9724;51.194;6.856;2023-04-03T15:10:52;2.67;;;1.20;;
19183;SDS011;9724;51.194;6.856;2023-04-03T15:13:21;4.93;;;1.60;;
19183;SDS011;9724;51.194;6.856;2023-04-03T15:15:48;2.90;;;1.20;;
19183;SDS011;9724;51.194;6.856;2023-04-03T15:18:15;1.10;;;1.00;;
19183;SDS011;9724;51.194;6.856;2023-04-03T15:20:43;1.63;;;0.93;;
19183;SDS011;9724;51.194;6.856;2023-04-03T15:23:10;1.80;;;1.10;;
19183;SDS011;9724;51.194;6.856;2023-04-03T15:25:37;1.40;;;1.00;;
19183;SDS011;9724;51.194;6.856;2023-04-03T15:28:05;2.83;;;1.20;;